createdAt,value
2018-06-15T00:00:08.555Z,6.67
2018-06-15T00:02:37.337Z,6.37
2018-06-15T00:05:06.935Z,6.97
2018-06-15T00:07:35.282Z,6.70
2018-06-15T00:10:03.640Z,7.30
2018-06-15T00:12:32.030Z,7.20
2018-06-15T00:15:00.382Z,7.80
2018-06-15T00:17:28.709Z,7.47
2018-06-15T00:19:57.204Z,6.90
2018-06-15T00:22:25.647Z,7.40
2018-06-15T00:24:53.962Z,6.97
2018-06-15T00:27:22.363Z,7.00
2018-06-15T00:29:50.729Z,6.60
2018-06-15T00:32:19.352Z,6.90
2018-06-15T00:34:47.732Z,6.33
2018-06-15T00:37:16.373Z,6.73
2018-06-15T00:39:44.646Z,6.33
2018-06-15T00:42:13.305Z,6.90
2018-06-15T00:44:41.681Z,6.70
2018-06-15T00:47:10.223Z,6.30
2018-06-15T00:49:38.569Z,6.50
2018-06-15T00:52:06.913Z,6.50
2018-06-15T00:54:35.390Z,6.63
2018-06-15T00:57:15.129Z,7.17
2018-06-15T00:59:43.462Z,7.10
2018-06-15T01:02:12.070Z,6.87
2018-06-15T01:04:40.582Z,6.57
2018-06-15T01:07:08.966Z,5.77
2018-06-15T01:09:37.334Z,6.63
2018-06-15T01:12:05.997Z,6.07
2018-06-15T01:14:34.707Z,7.00
2018-06-15T01:17:03.143Z,6.30
2018-06-15T01:19:31.431Z,6.17
2018-06-15T01:21:59.822Z,6.67
2018-06-15T01:24:28.167Z,6.33
2018-06-15T01:26:56.248Z,6.43
2018-06-15T01:29:24.573Z,7.20
2018-06-15T01:31:53.051Z,6.87
2018-06-15T01:34:21.389Z,7.03
2018-06-15T01:36:49.848Z,7.03
2018-06-15T01:39:18.401Z,6.43
2018-06-15T01:41:46.702Z,6.73
2018-06-15T01:44:15.336Z,7.37
2018-06-15T01:46:43.665Z,6.83
2018-06-15T01:49:11.964Z,7.47
2018-06-15T01:51:40.277Z,6.80
2018-06-15T01:54:08.754Z,7.37
2018-06-15T01:56:37.100Z,6.67
2018-06-15T01:59:05.657Z,7.10
2018-06-15T02:01:34.094Z,7.00
2018-06-15T02:04:02.371Z,6.80
2018-06-15T02:06:30.706Z,6.77
2018-06-15T02:08:59.357Z,6.40
2018-06-15T02:11:29.025Z,6.23
2018-06-15T02:13:57.390Z,6.07
2018-06-15T02:16:26.066Z,6.90
2018-06-15T02:18:54.752Z,6.13
2018-06-15T02:21:23.081Z,7.03
2018-06-15T02:23:51.421Z,7.90
2018-06-15T02:26:20.024Z,7.47
2018-06-15T02:28:48.362Z,8.27
2018-06-15T02:31:16.683Z,7.37
2018-06-15T02:33:45.129Z,7.47
2018-06-15T02:36:13.482Z,7.27
2018-06-15T02:38:41.789Z,7.77
2018-06-15T02:41:10.146Z,6.93
2018-06-15T02:43:38.470Z,7.40
2018-06-15T02:46:06.767Z,7.23
2018-06-15T02:48:35.089Z,6.50
2018-06-15T02:51:03.452Z,6.57
2018-06-15T02:53:31.761Z,7.00
2018-06-15T02:56:00.098Z,6.63
2018-06-15T02:58:28.130Z,7.40
2018-06-15T03:00:56.472Z,6.80
2018-06-15T03:03:24.787Z,6.97
2018-06-15T03:05:53.101Z,6.87
2018-06-15T03:08:21.519Z,6.37
2018-06-15T03:10:50.066Z,7.53
2018-06-15T03:13:18.440Z,6.70
2018-06-15T03:15:46.771Z,6.43
2018-06-15T03:18:15.114Z,7.77
2018-06-15T03:20:43.458Z,6.70
2018-06-15T03:23:11.751Z,7.90
2018-06-15T03:25:40.133Z,7.63
2018-06-15T03:28:08.181Z,5.87
2018-06-15T03:30:36.475Z,6.27
2018-06-15T03:33:04.817Z,6.77
2018-06-15T03:35:33.148Z,6.30
2018-06-15T03:38:01.446Z,6.47
2018-06-15T03:40:29.774Z,6.30
2018-06-15T03:42:58.122Z,6.37
2018-06-15T03:45:26.425Z,7.53
2018-06-15T03:47:54.746Z,7.60
2018-06-15T03:50:23.048Z,6.53
2018-06-15T03:52:51.345Z,6.83
2018-06-15T03:55:19.658Z,7.53
2018-06-15T03:57:47.971Z,7.93
2018-06-15T04:00:16.316Z,6.80
2018-06-15T04:02:44.655Z,8.00
2018-06-15T04:05:13.142Z,7.30
2018-06-15T04:07:41.240Z,7.77
2018-06-15T04:10:09.638Z,7.00
2018-06-15T04:12:38.108Z,6.90
2018-06-15T04:15:06.471Z,7.20
2018-06-15T04:17:34.838Z,7.13
2018-06-15T04:20:03.194Z,7.50
2018-06-15T04:22:31.505Z,7.30
2018-06-15T04:25:00.041Z,6.50
2018-06-15T04:27:28.406Z,7.37
2018-06-15T04:29:56.746Z,7.03
2018-06-15T04:32:25.282Z,7.67
2018-06-15T04:34:53.626Z,7.93
2018-06-15T04:37:21.964Z,7.83
2018-06-15T04:39:50.303Z,7.77
2018-06-15T04:42:18.719Z,7.47
2018-06-15T04:44:47.072Z,8.50
2018-06-15T04:47:15.408Z,7.97
2018-06-15T04:49:43.726Z,7.93
2018-06-15T04:52:12.073Z,7.60
2018-06-15T04:54:40.382Z,7.80
2018-06-15T04:57:08.697Z,7.87
2018-06-15T04:59:37.034Z,7.97
2018-06-15T05:02:05.381Z,8.07
2018-06-15T05:04:33.670Z,7.60
2018-06-15T05:07:02.035Z,9.23
2018-06-15T05:09:30.529Z,7.37
2018-06-15T05:11:58.949Z,7.20
2018-06-15T05:14:27.323Z,6.80
2018-06-15T05:16:55.668Z,6.40
2018-06-15T05:19:23.995Z,6.90
2018-06-15T05:21:52.365Z,8.83
2018-06-15T05:24:20.669Z,6.90
2018-06-15T05:26:48.994Z,7.10
2018-06-15T05:29:17.309Z,7.00
2018-06-15T05:31:45.671Z,6.90
2018-06-15T05:34:13.954Z,6.87
2018-06-15T05:36:42.311Z,7.50
2018-06-15T05:39:11.488Z,7.50
2018-06-15T05:41:41.432Z,8.53
2018-06-15T05:44:09.717Z,7.87
2018-06-15T05:46:38.105Z,7.53
2018-06-15T05:49:06.430Z,8.43
2018-06-15T05:51:34.794Z,8.33
2018-06-15T05:54:03.195Z,7.83
2018-06-15T05:56:31.513Z,8.20
2018-06-15T05:58:59.882Z,9.07
2018-06-15T06:01:28.351Z,9.07
2018-06-15T06:03:56.773Z,8.57
2018-06-15T06:06:25.150Z,9.23
2018-06-15T06:08:53.477Z,9.10
2018-06-15T06:11:22.167Z,9.50
2018-06-15T06:13:50.551Z,9.35
2018-06-15T06:16:18.906Z,8.38
2018-06-15T06:18:47.448Z,9.63
2018-06-15T06:21:15.894Z,8.90
2018-06-15T06:23:44.253Z,8.43
2018-06-15T06:26:12.711Z,9.65
2018-06-15T06:28:41.075Z,8.80
2018-06-15T06:31:09.523Z,9.10
2018-06-15T06:33:37.915Z,9.10
2018-06-15T06:36:06.470Z,9.58
2018-06-15T06:38:34.873Z,9.28
2018-06-15T06:41:03.372Z,9.10
2018-06-15T06:43:31.914Z,11.48
2018-06-15T06:46:00.626Z,9.15
2018-06-15T06:48:29.641Z,9.60
2018-06-15T06:50:58.200Z,10.32
2018-06-15T06:53:27.252Z,9.28
2018-06-15T06:55:55.735Z,10.25
2018-06-15T06:58:24.372Z,9.08
2018-06-15T07:00:53.036Z,9.68
2018-06-15T07:03:21.662Z,10.05
2018-06-15T07:05:50.370Z,10.20
2018-06-15T07:08:19.015Z,11.35
2018-06-15T07:10:47.574Z,11.05
2018-06-15T07:13:16.179Z,11.15
2018-06-15T07:17:13.760Z,11.93
2018-06-15T07:19:42.313Z,10.88
2018-06-15T07:22:10.794Z,11.85
2018-06-15T07:24:39.366Z,12.88
2018-06-15T07:27:07.922Z,12.37
2018-06-15T07:29:36.304Z,12.98
2018-06-15T07:32:04.413Z,11.95
2018-06-15T07:34:32.711Z,13.13
2018-06-15T07:37:01.152Z,12.45
2018-06-15T07:39:30.298Z,13.25
2018-06-15T07:41:58.744Z,12.07
2018-06-15T07:44:27.158Z,11.60
2018-06-15T07:46:55.540Z,11.22
2018-06-15T07:49:24.013Z,12.68
2018-06-15T07:51:52.399Z,11.50
2018-06-15T07:54:20.773Z,10.23
2018-06-15T07:56:49.165Z,9.95
2018-06-15T07:59:17.506Z,9.85
2018-06-15T08:01:45.823Z,10.50
2018-06-15T08:04:14.211Z,9.68
2018-06-15T08:06:42.563Z,10.78
2018-06-15T08:09:10.970Z,9.98
2018-06-15T08:11:39.409Z,11.45
2018-06-15T08:14:07.831Z,10.45
2018-06-15T08:16:36.142Z,10.23
2018-06-15T08:19:04.559Z,10.15
2018-06-15T08:21:32.905Z,10.25
2018-06-15T08:24:01.434Z,9.58
2018-06-15T08:26:31.094Z,8.58
2018-06-15T08:28:59.527Z,9.88
2018-06-15T08:31:27.896Z,8.73
2018-06-15T08:33:56.287Z,9.48
2018-06-15T08:36:24.563Z,9.43
2018-06-15T08:38:52.836Z,8.75
2018-06-15T08:41:21.123Z,8.98
2018-06-15T08:43:49.458Z,8.48
2018-06-15T08:46:17.853Z,9.45
2018-06-15T08:48:46.205Z,8.03
2018-06-15T08:51:14.496Z,8.58
2018-06-15T08:53:42.834Z,7.22
2018-06-15T08:56:11.277Z,8.33
2018-06-15T08:58:39.317Z,7.40
2018-06-15T09:01:07.626Z,7.33
2018-06-15T09:03:35.931Z,8.08
2018-06-15T09:06:04.207Z,8.03
2018-06-15T09:08:32.519Z,7.92
2018-06-15T09:11:00.799Z,9.15
2018-06-15T09:13:29.057Z,8.65
2018-06-15T09:15:57.359Z,7.95
2018-06-15T09:18:25.801Z,10.13
2018-06-15T09:20:54.110Z,9.33
2018-06-15T09:23:22.408Z,9.00
2018-06-15T09:25:51.958Z,7.25
2018-06-15T09:28:20.281Z,7.00
2018-06-15T09:30:48.781Z,6.00
2018-06-15T09:33:17.147Z,7.22
2018-06-15T09:35:45.240Z,6.72
2018-06-15T09:38:13.496Z,7.80
2018-06-15T09:40:41.816Z,6.53
2018-06-15T09:43:10.170Z,6.42
2018-06-15T09:45:38.478Z,5.45
2018-06-15T09:48:07.151Z,5.55
2018-06-15T09:50:35.474Z,7.17
2018-06-15T09:53:03.794Z,4.78
2018-06-15T09:55:32.121Z,4.50
2018-06-15T09:58:00.408Z,5.08
2018-06-15T10:00:34.008Z,4.67
2018-06-15T10:03:02.322Z,4.92
2018-06-15T10:05:30.594Z,5.53
2018-06-15T10:07:58.897Z,4.40
2018-06-15T10:10:27.220Z,5.12
2018-06-15T10:12:55.518Z,4.97
2018-06-15T10:15:23.835Z,6.10
2018-06-15T10:17:52.110Z,4.75
2018-06-15T10:20:20.487Z,5.70
2018-06-15T10:22:48.798Z,5.58
2018-06-15T10:25:17.079Z,5.58
2018-06-15T10:27:45.416Z,7.05
2018-06-15T10:30:13.735Z,5.72
2018-06-15T10:32:42.059Z,5.00
2018-06-15T10:35:10.377Z,5.40
2018-06-15T10:37:38.641Z,5.28
2018-06-15T10:40:06.962Z,5.95
2018-06-15T10:42:35.227Z,5.97
2018-06-15T10:45:03.266Z,5.22
2018-06-15T10:47:31.561Z,5.03
2018-06-15T10:49:59.937Z,4.78
2018-06-15T10:52:28.297Z,4.83
2018-06-15T10:54:56.590Z,5.53
2018-06-15T10:57:24.965Z,5.08
2018-06-15T10:59:53.313Z,5.08
2018-06-15T11:02:21.748Z,4.80
2018-06-15T11:04:50.303Z,5.42
2018-06-15T11:07:18.636Z,5.30
2018-06-15T11:09:47.006Z,4.40
2018-06-15T11:12:15.352Z,4.65
2018-06-15T11:14:43.634Z,4.20
2018-06-15T11:17:12.256Z,5.15
2018-06-15T11:19:40.603Z,5.22
2018-06-15T11:22:09.383Z,4.42
2018-06-15T11:24:37.753Z,4.50
2018-06-15T11:27:06.070Z,4.65
2018-06-15T11:29:34.730Z,4.47
2018-06-15T11:32:03.061Z,4.53
2018-06-15T11:34:31.566Z,4.15
2018-06-15T11:37:00.154Z,4.55
2018-06-15T11:39:28.878Z,6.20
2018-06-15T11:41:57.326Z,4.83
2018-06-15T11:44:25.398Z,4.30
2018-06-15T11:46:54.014Z,5.17
2018-06-15T11:49:22.557Z,4.97
2018-06-15T11:51:50.884Z,5.22
2018-06-15T11:54:19.233Z,5.53
2018-06-15T11:56:47.586Z,4.50
2018-06-15T11:59:15.927Z,4.83
2018-06-15T12:01:44.564Z,5.03
2018-06-15T12:04:12.927Z,5.17
2018-06-15T12:06:41.322Z,5.15
2018-06-15T12:09:10.365Z,4.50
2018-06-15T12:11:38.756Z,6.47
2018-06-15T12:14:07.187Z,5.72
2018-06-15T12:16:35.564Z,6.15
2018-06-15T12:19:03.906Z,5.70
2018-06-15T12:21:32.239Z,4.95
2018-06-15T12:24:00.588Z,4.85
2018-06-15T12:26:28.965Z,4.85
2018-06-15T12:28:57.293Z,4.83
2018-06-15T12:31:27.339Z,5.00
2018-06-15T12:33:55.653Z,4.80
2018-06-15T12:36:24.018Z,5.12
2018-06-15T12:38:52.323Z,6.25
2018-06-15T12:41:20.640Z,6.62
2018-06-15T12:43:48.974Z,7.55
2018-06-15T12:46:17.321Z,6.20
2018-06-15T12:48:45.789Z,7.25
2018-06-15T12:51:14.164Z,5.78
2018-06-15T12:53:42.399Z,6.12
2018-06-15T12:56:10.897Z,6.10
2018-06-15T12:58:39.337Z,6.90
2018-06-15T13:01:07.709Z,6.30
2018-06-15T13:03:36.029Z,5.97
2018-06-15T13:06:04.539Z,5.97
2018-06-15T13:08:32.913Z,6.87
2018-06-15T13:11:01.235Z,6.40
2018-06-15T13:13:29.595Z,5.95
2018-06-15T13:15:57.862Z,6.30
2018-06-15T13:18:26.162Z,6.12
2018-06-15T13:20:54.527Z,6.00
2018-06-15T13:23:22.965Z,5.75
2018-06-15T13:25:51.307Z,9.20
2018-06-15T13:28:19.633Z,6.78
2018-06-15T13:30:47.953Z,6.33
2018-06-15T13:33:16.046Z,6.20
2018-06-15T13:35:44.362Z,6.15
2018-06-15T13:38:12.698Z,6.65
2018-06-15T13:40:41.056Z,6.45
2018-06-15T13:43:09.400Z,5.72
2018-06-15T13:45:37.677Z,5.92
2018-06-15T13:48:05.996Z,4.97
2018-06-15T13:50:34.282Z,4.95
2018-06-15T13:53:02.594Z,7.55
2018-06-15T13:55:30.935Z,6.15
2018-06-15T13:57:59.260Z,6.33
2018-06-15T14:00:27.555Z,7.70
2018-06-15T14:02:55.929Z,5.15
2018-06-15T14:05:24.248Z,5.60
2018-06-15T14:07:52.612Z,7.10
2018-06-15T14:10:20.919Z,6.87
2018-06-15T14:12:49.269Z,6.25
2018-06-15T14:15:17.600Z,7.00
2018-06-15T14:17:45.946Z,8.30
2018-06-15T14:20:14.727Z,6.30
2018-06-15T14:22:43.021Z,7.10
2018-06-15T14:25:11.484Z,7.60
2018-06-15T14:27:39.494Z,6.17
2018-06-15T14:30:07.858Z,5.70
2018-06-15T14:32:36.225Z,5.60
2018-06-15T14:35:04.593Z,5.08
2018-06-15T14:37:32.879Z,5.30
2018-06-15T14:40:01.340Z,5.37
2018-06-15T14:42:29.672Z,61.73
2018-06-15T14:44:57.999Z,52.00
2018-06-15T14:47:26.278Z,5.10
2018-06-15T14:49:54.669Z,5.17
2018-06-15T14:52:22.991Z,5.30
2018-06-15T14:54:51.333Z,5.33
2018-06-15T14:57:19.779Z,5.47
2018-06-15T14:59:48.119Z,5.75
2018-06-15T15:02:16.461Z,6.05
2018-06-15T15:04:44.853Z,5.97
2018-06-15T15:07:13.139Z,5.90
2018-06-15T15:09:41.479Z,5.80
2018-06-15T15:12:09.797Z,4.87
2018-06-15T15:14:38.156Z,5.92
2018-06-15T15:17:06.447Z,5.28
2018-06-15T15:19:34.754Z,5.65
2018-06-15T15:22:03.088Z,5.08
2018-06-15T15:24:31.377Z,4.90
2018-06-15T15:26:59.676Z,5.10
2018-06-15T15:29:27.987Z,4.80
2018-06-15T15:31:56.325Z,5.40
2018-06-15T15:34:24.693Z,4.83
2018-06-15T15:36:53.014Z,5.17
2018-06-15T15:39:21.340Z,4.83
2018-06-15T15:41:49.637Z,4.62
2018-06-15T15:44:17.961Z,4.60
2018-06-15T15:46:46.315Z,4.80
2018-06-15T15:49:14.662Z,4.37
2018-06-15T15:51:43.004Z,4.37
2018-06-15T15:54:11.343Z,5.58
2018-06-15T15:56:39.649Z,4.90
2018-06-15T15:59:07.930Z,6.17
2018-06-15T16:01:36.252Z,5.03
2018-06-15T16:04:04.647Z,6.90
2018-06-15T16:06:32.967Z,7.10
2018-06-15T16:09:01.305Z,8.05
2018-06-15T16:11:29.686Z,7.78
2018-06-15T16:13:57.978Z,7.25
2018-06-15T16:16:26.265Z,6.37
2018-06-15T16:18:54.679Z,6.83
2018-06-15T16:21:22.982Z,7.47
2018-06-15T16:23:51.263Z,7.37
2018-06-15T16:26:19.596Z,7.12
2018-06-15T16:28:47.921Z,7.50
2018-06-15T16:31:16.259Z,6.77
2018-06-15T16:33:44.536Z,6.37
2018-06-15T16:36:12.857Z,6.70
2018-06-15T16:38:41.169Z,6.37
2018-06-15T16:41:09.540Z,6.40
2018-06-15T16:43:37.889Z,6.93
2018-06-15T16:46:06.313Z,8.97
2018-06-15T16:48:34.692Z,8.63
2018-06-15T16:51:03.025Z,5.97
2018-06-15T16:53:31.349Z,8.43
2018-06-15T16:55:59.687Z,7.50
2018-06-15T16:58:27.995Z,7.83
2018-06-15T17:00:56.322Z,7.90
2018-06-15T17:03:24.636Z,7.60
2018-06-15T17:05:52.961Z,8.93
2018-06-15T17:08:21.264Z,8.23
2018-06-15T17:10:49.599Z,8.17
2018-06-15T17:13:17.925Z,8.23
2018-06-15T17:15:46.326Z,8.43
2018-06-15T17:18:14.666Z,8.30
2018-06-15T17:20:43.057Z,8.53
2018-06-15T17:23:11.355Z,10.10
2018-06-15T17:25:39.646Z,8.80
2018-06-15T17:28:08.166Z,7.13
2018-06-15T17:33:11.198Z,6.13
2018-06-15T17:35:39.535Z,5.93
2018-06-15T17:38:07.947Z,6.67
2018-06-15T17:40:36.209Z,6.43
2018-06-15T17:43:04.550Z,6.33
2018-06-15T17:45:32.890Z,5.97
2018-06-15T17:48:01.178Z,7.37
2018-06-15T17:50:29.502Z,6.60
2018-06-15T17:52:57.777Z,8.73
2018-06-15T17:55:26.063Z,6.57
2018-06-15T17:57:54.424Z,6.33
2018-06-15T18:00:22.774Z,6.33
2018-06-15T18:02:51.107Z,7.73
2018-06-15T18:05:19.438Z,6.60
2018-06-15T18:07:47.760Z,7.13
2018-06-15T18:10:16.101Z,6.53
2018-06-15T18:12:44.414Z,7.50
2018-06-15T18:15:12.729Z,7.10
2018-06-15T18:17:41.146Z,7.97
2018-06-15T18:20:09.443Z,7.50
2018-06-15T18:22:37.766Z,7.23
2018-06-15T18:25:06.287Z,7.37
2018-06-15T18:27:34.632Z,7.33
2018-06-15T18:30:02.980Z,7.77
2018-06-15T18:32:31.270Z,7.90
2018-06-15T18:34:59.611Z,8.60
2018-06-15T18:37:27.955Z,7.53
2018-06-15T18:39:56.247Z,8.43
2018-06-15T18:42:24.611Z,9.40
2018-06-15T18:44:52.924Z,8.37
2018-06-15T18:47:21.259Z,8.73
2018-06-15T18:49:49.595Z,8.23
2018-06-15T18:52:17.939Z,8.10
2018-06-15T18:54:46.330Z,8.17
2018-06-15T18:57:14.416Z,9.37
2018-06-15T18:59:42.705Z,10.57
2018-06-15T19:02:11.030Z,9.00
2018-06-15T19:04:39.321Z,8.33
2018-06-15T19:07:07.618Z,8.03
2018-06-15T19:09:35.910Z,9.30
2018-06-15T19:12:04.244Z,9.70
2018-06-15T19:14:32.611Z,9.40
2018-06-15T19:17:00.909Z,9.67
2018-06-15T19:19:29.206Z,9.17
2018-06-15T19:21:57.512Z,9.40
2018-06-15T19:24:25.796Z,8.67
2018-06-15T19:26:54.178Z,9.83
2018-06-15T19:29:22.577Z,9.77
2018-06-15T19:31:50.888Z,11.70
2018-06-15T19:34:19.235Z,9.47
2018-06-15T19:36:47.585Z,10.20
2018-06-15T19:39:15.938Z,9.77
2018-06-15T19:41:44.257Z,10.40
2018-06-15T19:44:12.590Z,10.47
2018-06-15T19:46:40.931Z,10.83
2018-06-15T19:49:09.273Z,10.50
2018-06-15T19:51:37.599Z,12.40
2018-06-15T19:54:05.991Z,10.37
2018-06-15T19:56:34.282Z,10.33
2018-06-15T19:59:02.647Z,10.30
2018-06-15T20:01:30.951Z,10.47
2018-06-15T20:03:59.275Z,10.77
2018-06-15T20:06:27.586Z,10.83
2018-06-15T20:08:55.903Z,11.30
2018-06-15T20:11:24.171Z,10.57
2018-06-15T20:13:52.441Z,11.70
2018-06-15T20:16:20.715Z,11.43
2018-06-15T20:18:49.073Z,10.30
2018-06-15T20:21:17.366Z,10.60
2018-06-15T20:23:45.638Z,10.87
2018-06-15T20:26:13.974Z,10.40
2018-06-15T20:28:42.279Z,10.00
2018-06-15T20:31:10.795Z,11.07
2018-06-15T20:33:38.864Z,10.80
2018-06-15T20:36:07.221Z,10.53
2018-06-15T20:38:35.483Z,10.83
2018-06-15T20:41:03.791Z,11.07
2018-06-15T20:43:32.202Z,10.73
2018-06-15T20:46:00.480Z,11.53
2018-06-15T20:48:28.765Z,9.53
2018-06-15T20:50:57.076Z,8.73
2018-06-15T20:53:25.542Z,9.60
2018-06-15T20:55:53.889Z,10.20
2018-06-15T20:58:22.220Z,9.70
2018-06-15T21:00:50.487Z,9.03
2018-06-15T21:03:18.826Z,10.03
2018-06-15T21:05:47.130Z,10.20
2018-06-15T21:08:15.434Z,9.83
2018-06-15T21:10:43.751Z,10.17
2018-06-15T21:13:12.051Z,10.87
2018-06-15T21:15:41.305Z,11.37
2018-06-15T21:18:09.607Z,11.17
2018-06-15T21:20:37.924Z,11.13
2018-06-15T21:23:06.323Z,11.53
2018-06-15T21:25:34.641Z,12.10
2018-06-15T21:28:02.954Z,11.70
2018-06-15T21:30:31.243Z,11.77
2018-06-15T21:32:59.556Z,11.17
2018-06-15T21:35:27.889Z,12.17
2018-06-15T21:37:56.155Z,12.37
2018-06-15T21:40:24.506Z,12.60
2018-06-15T21:42:52.782Z,12.73
2018-06-15T21:45:21.117Z,11.33
2018-06-15T21:47:49.435Z,12.60
2018-06-15T21:50:17.764Z,11.93
2018-06-15T21:52:46.050Z,11.93
2018-06-15T21:55:14.394Z,11.87
2018-06-15T21:57:42.697Z,11.80
2018-06-15T22:00:10.978Z,11.20
2018-06-15T22:02:39.267Z,11.90
2018-06-15T22:05:07.618Z,11.40
2018-06-15T22:07:35.949Z,10.77
2018-06-15T22:10:04.258Z,11.07
2018-06-15T22:12:32.574Z,12.03
2018-06-15T22:15:00.893Z,11.33
2018-06-15T22:17:29.180Z,11.03
2018-06-15T22:19:57.468Z,11.37
2018-06-15T22:22:25.765Z,11.07
2018-06-15T22:24:54.257Z,12.27
2018-06-15T22:27:22.575Z,11.37
2018-06-15T22:29:50.855Z,11.73
2018-06-15T22:32:19.190Z,11.50
2018-06-15T22:34:47.532Z,10.57
2018-06-15T22:37:15.831Z,11.97
2018-06-15T22:39:44.161Z,12.00
2018-06-15T22:42:12.456Z,11.30
2018-06-15T22:44:40.757Z,11.77
2018-06-15T22:47:09.084Z,11.50
2018-06-15T22:49:37.381Z,12.23
2018-06-15T22:52:05.804Z,11.77
2018-06-15T22:54:34.097Z,11.23
2018-06-15T22:57:02.441Z,11.37
2018-06-15T22:59:30.765Z,11.57
2018-06-15T23:01:59.099Z,12.07
2018-06-15T23:04:27.399Z,11.67
2018-06-15T23:06:55.721Z,11.93
2018-06-15T23:09:23.986Z,12.17
2018-06-15T23:11:52.291Z,11.60
2018-06-15T23:14:20.328Z,11.67
2018-06-15T23:16:48.641Z,11.47
2018-06-15T23:19:16.938Z,11.07
2018-06-15T23:21:45.277Z,11.67
2018-06-15T23:24:13.538Z,12.30
2018-06-15T23:26:41.868Z,12.53
2018-06-15T23:29:10.174Z,12.30
2018-06-15T23:31:38.486Z,12.97
2018-06-15T23:34:07.068Z,12.77
2018-06-15T23:36:35.392Z,12.47
2018-06-15T23:39:05.057Z,11.67
2018-06-15T23:41:33.353Z,12.33
2018-06-15T23:44:01.655Z,11.80
2018-06-15T23:46:29.947Z,11.70
2018-06-15T23:48:58.252Z,10.83
2018-06-15T23:51:26.567Z,12.00
2018-06-15T23:53:54.876Z,12.43
2018-06-15T23:56:23.216Z,11.90
2018-06-15T23:58:51.505Z,11.73
